sensor_id;sensor_type;location;lat;lon;timestamp;P1;durP1;ratioP1;P2;durP2;ratioP2
57225;SDS011;43082;43.568;22.256;2022-11-18T00:02:03;46.20;;;32.88;;
57225;SDS011;43082;43.568;22.256;2022-11-18T00:04:28;37.92;;;27.65;;
57225;SDS011;43082;43.568;22.256;2022-11-18T00:06:53;30.45;;;21.25;;
57225;SDS011;43082;43.568;22.256;2022-11-18T00:09:19;26.95;;;17.83;;
57225;SDS011;43082;43.568;22.256;2022-11-18T00:11:44;30.13;;;19.52;;
57225;SDS011;43082;43.568;22.256;2022-11-18T00:14:28;32.67;;;21.77;;
57225;SDS011;43082;43.568;22.256;2022-11-18T00:16:55;34.00;;;23.52;;
57225;SDS011;43082;43.568;22.256;2022-11-18T00:19:40;35.90;;;24.75;;
57225;SDS011;43082;43.568;22.256;2022-11-18T00:22:06;36.72;;;25.48;;
57225;SDS011;43082;43.568;22.256;2022-11-18T00:24:32;42.05;;;27.85;;
57225;SDS011;43082;43.568;22.256;2022-11-18T00:26:58;36.38;;;24.52;;
57225;SDS011;43082;43.568;22.256;2022-11-18T00:29:24;38.47;;;26.50;;
57225;SDS011;43082;43.568;22.256;2022-11-18T00:31:52;42.15;;;28.98;;
57225;SDS011;43082;43.568;22.256;2022-11-18T00:34:20;41.17;;;29.20;;
57225;SDS011;43082;43.568;22.256;2022-11-18T00:36:46;39.00;;;28.27;;
57225;SDS011;43082;43.568;22.256;2022-11-18T00:39:12;41.97;;;28.88;;
57225;SDS011;43082;43.568;22.256;2022-11-18T00:41:39;39.97;;;27.88;;
57225;SDS011;43082;43.568;22.256;2022-11-18T00:44:23;33.35;;;22.00;;
57225;SDS011;43082;43.568;22.256;2022-11-18T00:46:48;30.38;;;20.02;;
57225;SDS011;43082;43.568;22.256;2022-11-18T00:49:14;35.47;;;20.13;;
57225;SDS011;43082;43.568;22.256;2022-11-18T00:51:39;31.88;;;19.95;;
57225;SDS011;43082;43.568;22.256;2022-11-18T00:54:05;35.25;;;23.00;;
57225;SDS011;43082;43.568;22.256;2022-11-18T00:56:30;41.20;;;27.67;;
57225;SDS011;43082;43.568;22.256;2022-11-18T00:58:56;34.72;;;23.65;;
57225;SDS011;43082;43.568;22.256;2022-11-18T01:01:22;46.45;;;31.77;;
57225;SDS011;43082;43.568;22.256;2022-11-18T01:03:47;35.95;;;25.63;;
57225;SDS011;43082;43.568;22.256;2022-11-18T01:06:12;32.55;;;23.25;;
57225;SDS011;43082;43.568;22.256;2022-11-18T01:08:38;38.78;;;25.67;;
57225;SDS011;43082;43.568;22.256;2022-11-18T01:11:03;32.20;;;22.63;;
57225;SDS011;43082;43.568;22.256;2022-11-18T01:13:48;27.05;;;19.00;;
57225;SDS011;43082;43.568;22.256;2022-11-18T01:16:18;19.38;;;12.20;;
57225;SDS011;43082;43.568;22.256;2022-11-18T01:18:48;17.95;;;10.65;;
57225;SDS011;43082;43.568;22.256;2022-11-18T01:21:13;16.67;;;10.80;;
57225;SDS011;43082;43.568;22.256;2022-11-18T01:23:39;20.00;;;10.85;;
57225;SDS011;43082;43.568;22.256;2022-11-18T01:26:05;14.80;;;10.02;;
57225;SDS011;43082;43.568;22.256;2022-11-18T01:28:32;20.52;;;13.57;;
57225;SDS011;43082;43.568;22.256;2022-11-18T01:31:07;18.02;;;11.98;;
57225;SDS011;43082;43.568;22.256;2022-11-18T01:33:35;17.00;;;11.02;;
57225;SDS011;43082;43.568;22.256;2022-11-18T01:36:01;15.82;;;11.32;;
57225;SDS011;43082;43.568;22.256;2022-11-18T01:38:26;20.00;;;13.43;;
57225;SDS011;43082;43.568;22.256;2022-11-18T01:40:52;20.20;;;13.57;;
57225;SDS011;43082;43.568;22.256;2022-11-18T01:43:19;18.92;;;13.43;;
57225;SDS011;43082;43.568;22.256;2022-11-18T01:45:47;20.83;;;14.70;;
57225;SDS011;43082;43.568;22.256;2022-11-18T01:51:03;16.83;;;11.70;;
57225;SDS011;43082;43.568;22.256;2022-11-18T01:53:41;14.45;;;10.40;;
57225;SDS011;43082;43.568;22.256;2022-11-18T01:56:18;22.52;;;14.65;;
57225;SDS011;43082;43.568;22.256;2022-11-18T01:58:56;22.20;;;13.43;;
57225;SDS011;43082;43.568;22.256;2022-11-18T02:01:24;16.95;;;11.45;;
57225;SDS011;43082;43.568;22.256;2022-11-18T02:03:50;17.65;;;11.88;;
57225;SDS011;43082;43.568;22.256;2022-11-18T02:06:17;20.27;;;14.07;;
57225;SDS011;43082;43.568;22.256;2022-11-18T02:08:42;21.17;;;13.30;;
57225;SDS011;43082;43.568;22.256;2022-11-18T02:11:09;25.35;;;15.88;;
57225;SDS011;43082;43.568;22.256;2022-11-18T02:13:56;24.35;;;15.40;;
57225;SDS011;43082;43.568;22.256;2022-11-18T02:16:25;25.67;;;16.23;;
57225;SDS011;43082;43.568;22.256;2022-11-18T02:18:59;27.70;;;16.55;;
57225;SDS011;43082;43.568;22.256;2022-11-18T02:24:05;31.23;;;19.63;;
57225;SDS011;43082;43.568;22.256;2022-11-18T02:32:06;21.48;;;13.60;;
57225;SDS011;43082;43.568;22.256;2022-11-18T02:37:19;25.45;;;15.07;;
57225;SDS011;43082;43.568;22.256;2022-11-18T02:39:51;26.58;;;16.88;;
57225;SDS011;43082;43.568;22.256;2022-11-18T02:42:32;27.50;;;17.55;;
57225;SDS011;43082;43.568;22.256;2022-11-18T02:45:01;26.08;;;16.00;;
57225;SDS011;43082;43.568;22.256;2022-11-18T02:47:29;25.45;;;16.98;;
57225;SDS011;43082;43.568;22.256;2022-11-18T02:49:57;27.65;;;17.17;;
57225;SDS011;43082;43.568;22.256;2022-11-18T02:52:26;18.63;;;12.93;;
57225;SDS011;43082;43.568;22.256;2022-11-18T02:54:52;22.80;;;15.43;;
57225;SDS011;43082;43.568;22.256;2022-11-18T02:57:18;24.45;;;16.10;;
57225;SDS011;43082;43.568;22.256;2022-11-18T02:59:44;23.75;;;15.80;;
57225;SDS011;43082;43.568;22.256;2022-11-18T03:02:17;20.10;;;13.13;;
57225;SDS011;43082;43.568;22.256;2022-11-18T03:04:47;21.73;;;13.40;;
57225;SDS011;43082;43.568;22.256;2022-11-18T03:07:18;22.75;;;13.88;;
57225;SDS011;43082;43.568;22.256;2022-11-18T03:09:50;18.77;;;9.30;;
57225;SDS011;43082;43.568;22.256;2022-11-18T03:12:18;19.63;;;12.18;;
57225;SDS011;43082;43.568;22.256;2022-11-18T03:17:33;22.42;;;13.98;;
57225;SDS011;43082;43.568;22.256;2022-11-18T03:20:21;19.65;;;11.98;;
57225;SDS011;43082;43.568;22.256;2022-11-18T03:26:08;17.88;;;10.10;;
57225;SDS011;43082;43.568;22.256;2022-11-18T03:31:12;14.68;;;8.82;;
57225;SDS011;43082;43.568;22.256;2022-11-18T03:33:44;17.15;;;10.27;;
57225;SDS011;43082;43.568;22.256;2022-11-18T03:36:12;19.08;;;12.30;;
57225;SDS011;43082;43.568;22.256;2022-11-18T03:38:41;19.50;;;11.82;;
57225;SDS011;43082;43.568;22.256;2022-11-18T03:41:09;16.83;;;9.10;;
57225;SDS011;43082;43.568;22.256;2022-11-18T03:43:40;13.43;;;7.22;;
57225;SDS011;43082;43.568;22.256;2022-11-18T03:48:47;13.48;;;8.23;;
57225;SDS011;43082;43.568;22.256;2022-11-18T03:51:16;14.10;;;8.25;;
57225;SDS011;43082;43.568;22.256;2022-11-18T03:53:44;14.80;;;9.13;;
57225;SDS011;43082;43.568;22.256;2022-11-18T03:56:16;18.05;;;10.95;;
57225;SDS011;43082;43.568;22.256;2022-11-18T04:01:16;20.00;;;13.52;;
57225;SDS011;43082;43.568;22.256;2022-11-18T04:03:45;21.38;;;12.73;;
57225;SDS011;43082;43.568;22.256;2022-11-18T04:06:17;21.27;;;12.82;;
57225;SDS011;43082;43.568;22.256;2022-11-18T04:08:48;18.42;;;11.25;;
57225;SDS011;43082;43.568;22.256;2022-11-18T04:11:21;19.73;;;10.82;;
57225;SDS011;43082;43.568;22.256;2022-11-18T04:14:07;16.40;;;10.70;;
57225;SDS011;43082;43.568;22.256;2022-11-18T04:16:40;21.17;;;12.25;;
57225;SDS011;43082;43.568;22.256;2022-11-18T04:19:06;18.90;;;10.90;;
57225;SDS011;43082;43.568;22.256;2022-11-18T04:21:32;17.00;;;10.40;;
57225;SDS011;43082;43.568;22.256;2022-11-18T04:23:57;17.17;;;10.82;;
57225;SDS011;43082;43.568;22.256;2022-11-18T04:26:23;16.48;;;9.20;;
57225;SDS011;43082;43.568;22.256;2022-11-18T04:28:48;14.50;;;8.50;;
57225;SDS011;43082;43.568;22.256;2022-11-18T04:31:14;15.23;;;9.10;;
57225;SDS011;43082;43.568;22.256;2022-11-18T04:33:39;19.30;;;12.00;;
57225;SDS011;43082;43.568;22.256;2022-11-18T04:36:05;22.27;;;11.38;;
57225;SDS011;43082;43.568;22.256;2022-11-18T04:38:30;17.90;;;11.07;;
57225;SDS011;43082;43.568;22.256;2022-11-18T04:40:56;17.88;;;10.93;;
57225;SDS011;43082;43.568;22.256;2022-11-18T04:43:21;17.95;;;10.50;;
57225;SDS011;43082;43.568;22.256;2022-11-18T04:45:46;15.98;;;9.93;;
57225;SDS011;43082;43.568;22.256;2022-11-18T04:48:12;14.63;;;9.43;;
57225;SDS011;43082;43.568;22.256;2022-11-18T04:50:38;19.13;;;10.15;;
57225;SDS011;43082;43.568;22.256;2022-11-18T04:53:03;17.35;;;9.90;;
57225;SDS011;43082;43.568;22.256;2022-11-18T04:55:29;14.85;;;8.73;;
57225;SDS011;43082;43.568;22.256;2022-11-18T04:57:54;13.88;;;8.35;;
57225;SDS011;43082;43.568;22.256;2022-11-18T05:00:20;15.63;;;9.07;;
57225;SDS011;43082;43.568;22.256;2022-11-18T05:02:47;16.23;;;9.05;;
57225;SDS011;43082;43.568;22.256;2022-11-18T05:05:12;17.42;;;9.25;;
57225;SDS011;43082;43.568;22.256;2022-11-18T05:07:38;19.90;;;11.25;;
57225;SDS011;43082;43.568;22.256;2022-11-18T05:10:03;17.95;;;11.70;;
57225;SDS011;43082;43.568;22.256;2022-11-18T05:12:29;16.90;;;11.10;;
57225;SDS011;43082;43.568;22.256;2022-11-18T05:15:17;16.02;;;9.90;;
57225;SDS011;43082;43.568;22.256;2022-11-18T05:17:43;17.85;;;11.23;;
57225;SDS011;43082;43.568;22.256;2022-11-18T05:20:09;19.98;;;13.23;;
57225;SDS011;43082;43.568;22.256;2022-11-18T05:22:35;24.00;;;15.35;;
57225;SDS011;43082;43.568;22.256;2022-11-18T05:25:01;23.23;;;13.57;;
57225;SDS011;43082;43.568;22.256;2022-11-18T05:27:26;24.95;;;14.15;;
57225;SDS011;43082;43.568;22.256;2022-11-18T05:29:52;29.63;;;16.88;;
57225;SDS011;43082;43.568;22.256;2022-11-18T05:32:17;43.75;;;28.48;;
57225;SDS011;43082;43.568;22.256;2022-11-18T05:34:43;86.22;;;44.65;;
57225;SDS011;43082;43.568;22.256;2022-11-18T05:37:08;60.22;;;34.53;;
57225;SDS011;43082;43.568;22.256;2022-11-18T05:39:34;56.15;;;32.97;;
57225;SDS011;43082;43.568;22.256;2022-11-18T05:41:59;65.85;;;37.72;;
57225;SDS011;43082;43.568;22.256;2022-11-18T05:44:44;160.57;;;76.13;;
57225;SDS011;43082;43.568;22.256;2022-11-18T05:47:09;80.05;;;43.97;;
57225;SDS011;43082;43.568;22.256;2022-11-18T05:49:35;165.90;;;75.03;;
57225;SDS011;43082;43.568;22.256;2022-11-18T05:52:00;102.90;;;51.78;;
57225;SDS011;43082;43.568;22.256;2022-11-18T05:54:26;85.40;;;42.38;;
57225;SDS011;43082;43.568;22.256;2022-11-18T05:56:52;69.85;;;38.80;;
57225;SDS011;43082;43.568;22.256;2022-11-18T05:59:17;73.32;;;44.40;;
57225;SDS011;43082;43.568;22.256;2022-11-18T06:04:17;68.43;;;49.95;;
57225;SDS011;43082;43.568;22.256;2022-11-18T06:06:47;72.60;;;51.45;;
57225;SDS011;43082;43.568;22.256;2022-11-18T06:09:13;81.38;;;53.47;;
57225;SDS011;43082;43.568;22.256;2022-11-18T06:11:42;71.13;;;52.42;;
57225;SDS011;43082;43.568;22.256;2022-11-18T06:14:19;79.40;;;52.20;;
57225;SDS011;43082;43.568;22.256;2022-11-18T06:16:48;81.70;;;60.70;;
57225;SDS011;43082;43.568;22.256;2022-11-18T06:19:15;72.38;;;56.42;;
57225;SDS011;43082;43.568;22.256;2022-11-18T06:21:41;66.57;;;50.75;;
57225;SDS011;43082;43.568;22.256;2022-11-18T06:24:07;48.70;;;35.05;;
57225;SDS011;43082;43.568;22.256;2022-11-18T06:26:34;55.45;;;39.83;;
57225;SDS011;43082;43.568;22.256;2022-11-18T06:29:00;54.83;;;40.53;;
57225;SDS011;43082;43.568;22.256;2022-11-18T06:31:26;43.60;;;35.20;;
57225;SDS011;43082;43.568;22.256;2022-11-18T06:33:51;41.08;;;31.98;;
57225;SDS011;43082;43.568;22.256;2022-11-18T06:36:17;38.65;;;29.73;;
57225;SDS011;43082;43.568;22.256;2022-11-18T06:38:42;43.15;;;33.33;;
57225;SDS011;43082;43.568;22.256;2022-11-18T06:41:08;59.70;;;44.45;;
57225;SDS011;43082;43.568;22.256;2022-11-18T06:43:33;147.15;;;113.82;;
57225;SDS011;43082;43.568;22.256;2022-11-18T06:46:14;82.60;;;62.72;;
57225;SDS011;43082;43.568;22.256;2022-11-18T06:48:59;109.07;;;74.88;;
57225;SDS011;43082;43.568;22.256;2022-11-18T06:51:25;95.55;;;66.15;;
57225;SDS011;43082;43.568;22.256;2022-11-18T06:53:51;93.82;;;66.78;;
57225;SDS011;43082;43.568;22.256;2022-11-18T06:56:17;88.50;;;63.05;;
57225;SDS011;43082;43.568;22.256;2022-11-18T06:58:44;78.20;;;60.83;;
57225;SDS011;43082;43.568;22.256;2022-11-18T07:01:10;61.13;;;43.15;;
57225;SDS011;43082;43.568;22.256;2022-11-18T07:03:56;65.07;;;45.97;;
57225;SDS011;43082;43.568;22.256;2022-11-18T07:06:24;57.40;;;42.25;;
57225;SDS011;43082;43.568;22.256;2022-11-18T07:08:51;53.67;;;39.58;;
57225;SDS011;43082;43.568;22.256;2022-11-18T07:11:18;55.00;;;39.28;;
57225;SDS011;43082;43.568;22.256;2022-11-18T07:13:45;42.72;;;30.88;;
57225;SDS011;43082;43.568;22.256;2022-11-18T07:16:12;48.90;;;33.38;;
57225;SDS011;43082;43.568;22.256;2022-11-18T07:18:38;47.15;;;32.40;;
57225;SDS011;43082;43.568;22.256;2022-11-18T07:21:06;55.53;;;40.42;;
57225;SDS011;43082;43.568;22.256;2022-11-18T07:23:33;75.40;;;50.17;;
57225;SDS011;43082;43.568;22.256;2022-11-18T07:25:59;64.80;;;46.92;;
57225;SDS011;43082;43.568;22.256;2022-11-18T07:28:25;65.82;;;44.45;;
57225;SDS011;43082;43.568;22.256;2022-11-18T07:30:51;72.18;;;54.33;;
57225;SDS011;43082;43.568;22.256;2022-11-18T07:33:17;73.30;;;56.50;;
57225;SDS011;43082;43.568;22.256;2022-11-18T07:35:42;81.57;;;61.92;;
57225;SDS011;43082;43.568;22.256;2022-11-18T07:38:08;83.13;;;63.90;;
57225;SDS011;43082;43.568;22.256;2022-11-18T07:40:33;86.70;;;61.88;;
57225;SDS011;43082;43.568;22.256;2022-11-18T07:42:59;82.03;;;62.35;;
57225;SDS011;43082;43.568;22.256;2022-11-18T07:45:24;79.55;;;55.97;;
57225;SDS011;43082;43.568;22.256;2022-11-18T07:47:50;79.18;;;57.67;;
57225;SDS011;43082;43.568;22.256;2022-11-18T07:50:15;74.03;;;57.50;;
57225;SDS011;43082;43.568;22.256;2022-11-18T07:52:42;69.28;;;50.65;;
57225;SDS011;43082;43.568;22.256;2022-11-18T07:55:07;70.55;;;55.40;;
57225;SDS011;43082;43.568;22.256;2022-11-18T07:57:33;59.85;;;43.60;;
57225;SDS011;43082;43.568;22.256;2022-11-18T07:59:58;142.32;;;104.90;;
57225;SDS011;43082;43.568;22.256;2022-11-18T08:02:24;103.97;;;80.88;;
57225;SDS011;43082;43.568;22.256;2022-11-18T08:04:49;101.50;;;79.25;;
57225;SDS011;43082;43.568;22.256;2022-11-18T08:07:15;134.65;;;101.18;;
57225;SDS011;43082;43.568;22.256;2022-11-18T08:09:40;130.10;;;95.53;;
57225;SDS011;43082;43.568;22.256;2022-11-18T08:12:06;114.50;;;84.40;;
57225;SDS011;43082;43.568;22.256;2022-11-18T08:14:31;111.43;;;84.63;;
57225;SDS011;43082;43.568;22.256;2022-11-18T08:16:57;101.07;;;78.38;;
57225;SDS011;43082;43.568;22.256;2022-11-18T08:19:22;90.43;;;70.47;;
57225;SDS011;43082;43.568;22.256;2022-11-18T08:21:47;86.60;;;65.68;;
57225;SDS011;43082;43.568;22.256;2022-11-18T08:24:13;71.57;;;55.00;;
57225;SDS011;43082;43.568;22.256;2022-11-18T08:26:39;76.40;;;57.85;;
57225;SDS011;43082;43.568;22.256;2022-11-18T08:29:04;70.47;;;52.58;;
57225;SDS011;43082;43.568;22.256;2022-11-18T08:31:30;84.70;;;59.28;;
57225;SDS011;43082;43.568;22.256;2022-11-18T08:36:22;73.47;;;53.10;;
57225;SDS011;43082;43.568;22.256;2022-11-18T08:38:50;65.65;;;50.00;;
57225;SDS011;43082;43.568;22.256;2022-11-18T08:43:45;67.53;;;47.47;;
57225;SDS011;43082;43.568;22.256;2022-11-18T08:46:11;58.25;;;45.17;;
57225;SDS011;43082;43.568;22.256;2022-11-18T08:48:36;42.83;;;31.25;;
57225;SDS011;43082;43.568;22.256;2022-11-18T08:51:02;51.90;;;39.45;;
57225;SDS011;43082;43.568;22.256;2022-11-18T08:53:27;60.90;;;48.17;;
57225;SDS011;43082;43.568;22.256;2022-11-18T08:55:56;50.03;;;33.30;;
57225;SDS011;43082;43.568;22.256;2022-11-18T08:58:23;25.67;;;19.00;;
57225;SDS011;43082;43.568;22.256;2022-11-18T09:00:48;36.28;;;24.80;;
57225;SDS011;43082;43.568;22.256;2022-11-18T09:03:14;23.73;;;14.05;;
57225;SDS011;43082;43.568;22.256;2022-11-18T09:05:39;17.15;;;10.15;;
57225;SDS011;43082;43.568;22.256;2022-11-18T09:08:05;15.02;;;9.50;;
57225;SDS011;43082;43.568;22.256;2022-11-18T09:10:30;22.30;;;13.27;;
57225;SDS011;43082;43.568;22.256;2022-11-18T09:12:56;21.88;;;12.82;;
57225;SDS011;43082;43.568;22.256;2022-11-18T09:15:22;22.17;;;14.68;;
57225;SDS011;43082;43.568;22.256;2022-11-18T09:17:48;21.35;;;12.27;;
57225;SDS011;43082;43.568;22.256;2022-11-18T09:20:15;17.20;;;10.68;;
57225;SDS011;43082;43.568;22.256;2022-11-18T09:22:41;11.52;;;6.25;;
57225;SDS011;43082;43.568;22.256;2022-11-18T09:25:06;13.27;;;6.15;;
57225;SDS011;43082;43.568;22.256;2022-11-18T09:27:32;11.88;;;5.80;;
57225;SDS011;43082;43.568;22.256;2022-11-18T09:29:58;14.32;;;9.40;;
57225;SDS011;43082;43.568;22.256;2022-11-18T09:32:23;17.35;;;11.27;;
57225;SDS011;43082;43.568;22.256;2022-11-18T09:34:49;12.90;;;6.38;;
57225;SDS011;43082;43.568;22.256;2022-11-18T09:37:14;17.02;;;7.80;;
57225;SDS011;43082;43.568;22.256;2022-11-18T09:39:40;9.60;;;5.38;;
57225;SDS011;43082;43.568;22.256;2022-11-18T09:47:38;9.35;;;4.60;;
57225;SDS011;43082;43.568;22.256;2022-11-18T09:50:24;8.98;;;4.95;;
57225;SDS011;43082;43.568;22.256;2022-11-18T09:55:17;11.05;;;4.20;;
57225;SDS011;43082;43.568;22.256;2022-11-18T09:57:50;10.50;;;3.83;;
57225;SDS011;43082;43.568;22.256;2022-11-18T10:00:21;8.52;;;2.90;;
57225;SDS011;43082;43.568;22.256;2022-11-18T10:05:44;11.50;;;3.75;;
57225;SDS011;43082;43.568;22.256;2022-11-18T10:08:16;7.45;;;2.70;;
57225;SDS011;43082;43.568;22.256;2022-11-18T10:13:31;9.55;;;5.38;;
57225;SDS011;43082;43.568;22.256;2022-11-18T10:19:18;9.32;;;3.78;;
57225;SDS011;43082;43.568;22.256;2022-11-18T10:24:49;11.65;;;6.03;;
57225;SDS011;43082;43.568;22.256;2022-11-18T10:27:18;9.88;;;4.03;;
57225;SDS011;43082;43.568;22.256;2022-11-18T10:29:43;10.35;;;4.28;;
57225;SDS011;43082;43.568;22.256;2022-11-18T10:32:17;11.13;;;5.85;;
57225;SDS011;43082;43.568;22.256;2022-11-18T10:34:47;9.90;;;4.97;;
57225;SDS011;43082;43.568;22.256;2022-11-18T10:37:29;12.48;;;5.93;;
57225;SDS011;43082;43.568;22.256;2022-11-18T10:39:57;8.68;;;3.42;;
57225;SDS011;43082;43.568;22.256;2022-11-18T10:42:28;11.15;;;5.25;;
57225;SDS011;43082;43.568;22.256;2022-11-18T10:44:54;9.48;;;5.85;;
57225;SDS011;43082;43.568;22.256;2022-11-18T10:47:28;14.43;;;7.45;;
57225;SDS011;43082;43.568;22.256;2022-11-18T10:49:56;9.98;;;5.65;;
57225;SDS011;43082;43.568;22.256;2022-11-18T10:52:23;8.07;;;3.53;;
57225;SDS011;43082;43.568;22.256;2022-11-18T10:55:15;8.45;;;3.50;;
57225;SDS011;43082;43.568;22.256;2022-11-18T10:57:44;7.25;;;3.30;;
57225;SDS011;43082;43.568;22.256;2022-11-18T11:03:13;8.18;;;3.33;;
57225;SDS011;43082;43.568;22.256;2022-11-18T11:06:51;9.00;;;4.22;;
57225;SDS011;43082;43.568;22.256;2022-11-18T11:08:58;13.48;;;6.25;;
57225;SDS011;43082;43.568;22.256;2022-11-18T11:14:10;14.98;;;5.30;;
57225;SDS011;43082;43.568;22.256;2022-11-18T11:16:51;10.75;;;4.75;;
57225;SDS011;43082;43.568;22.256;2022-11-18T11:19:21;8.70;;;4.45;;
57225;SDS011;43082;43.568;22.256;2022-11-18T11:21:48;11.70;;;5.68;;
57225;SDS011;43082;43.568;22.256;2022-11-18T11:24:13;16.23;;;9.02;;
57225;SDS011;43082;43.568;22.256;2022-11-18T11:26:45;24.05;;;14.40;;
57225;SDS011;43082;43.568;22.256;2022-11-18T11:32:18;21.73;;;13.63;;
57225;SDS011;43082;43.568;22.256;2022-11-18T11:53:53;11.02;;;6.25;;
57225;SDS011;43082;43.568;22.256;2022-11-18T12:07:39;10.10;;;5.97;;
57225;SDS011;43082;43.568;22.256;2022-11-18T12:13:04;15.10;;;9.80;;
57225;SDS011;43082;43.568;22.256;2022-11-18T12:18:32;21.23;;;13.82;;
57225;SDS011;43082;43.568;22.256;2022-11-18T12:21:02;20.98;;;12.07;;
57225;SDS011;43082;43.568;22.256;2022-11-18T12:23:29;17.50;;;11.65;;
57225;SDS011;43082;43.568;22.256;2022-11-18T12:26:05;29.33;;;19.33;;
57225;SDS011;43082;43.568;22.256;2022-11-18T12:28:38;23.67;;;15.50;;
57225;SDS011;43082;43.568;22.256;2022-11-18T12:36:30;36.45;;;21.65;;
57225;SDS011;43082;43.568;22.256;2022-11-18T12:41:54;34.13;;;22.48;;
57225;SDS011;43082;43.568;22.256;2022-11-18T12:44:40;35.40;;;23.42;;
57225;SDS011;43082;43.568;22.256;2022-11-18T12:47:08;28.80;;;19.08;;
57225;SDS011;43082;43.568;22.256;2022-11-18T12:52:00;66.53;;;46.13;;
57225;SDS011;43082;43.568;22.256;2022-11-18T12:54:37;41.92;;;29.88;;
57225;SDS011;43082;43.568;22.256;2022-11-18T12:57:22;31.58;;;19.77;;
57225;SDS011;43082;43.568;22.256;2022-11-18T12:59:50;30.42;;;21.80;;
57225;SDS011;43082;43.568;22.256;2022-11-18T13:02:18;29.05;;;21.80;;
57225;SDS011;43082;43.568;22.256;2022-11-18T13:08:19;79.88;;;59.20;;
57225;SDS011;43082;43.568;22.256;2022-11-18T13:10:48;51.78;;;39.80;;
57225;SDS011;43082;43.568;22.256;2022-11-18T13:15:55;47.53;;;34.28;;
57225;SDS011;43082;43.568;22.256;2022-11-18T13:18:51;47.70;;;35.15;;
57225;SDS011;43082;43.568;22.256;2022-11-18T13:21:22;74.18;;;59.25;;
57225;SDS011;43082;43.568;22.256;2022-11-18T13:24:10;85.38;;;63.05;;
57225;SDS011;43082;43.568;22.256;2022-11-18T13:26:38;153.35;;;122.80;;
57225;SDS011;43082;43.568;22.256;2022-11-18T13:29:24;71.55;;;55.20;;
57225;SDS011;43082;43.568;22.256;2022-11-18T13:34:27;82.72;;;58.63;;
57225;SDS011;43082;43.568;22.256;2022-11-18T13:36:55;63.47;;;45.08;;
57225;SDS011;43082;43.568;22.256;2022-11-18T13:39:26;71.45;;;48.63;;
57225;SDS011;43082;43.568;22.256;2022-11-18T13:42:04;36.63;;;26.08;;
57225;SDS011;43082;43.568;22.256;2022-11-18T13:52:39;46.03;;;35.58;;
57225;SDS011;43082;43.568;22.256;2022-11-18T13:55:19;50.80;;;36.13;;
57225;SDS011;43082;43.568;22.256;2022-11-18T13:57:48;51.10;;;35.72;;
57225;SDS011;43082;43.568;22.256;2022-11-18T14:00:41;87.30;;;66.93;;
57225;SDS011;43082;43.568;22.256;2022-11-18T14:05:54;71.63;;;49.38;;
57225;SDS011;43082;43.568;22.256;2022-11-18T14:08:30;78.50;;;58.08;;
57225;SDS011;43082;43.568;22.256;2022-11-18T14:10:57;72.95;;;54.20;;
57225;SDS011;43082;43.568;22.256;2022-11-18T14:13:30;64.47;;;47.35;;
57225;SDS011;43082;43.568;22.256;2022-11-18T14:16:29;92.57;;;65.45;;
57225;SDS011;43082;43.568;22.256;2022-11-18T14:21:12;123.28;;;86.68;;
57225;SDS011;43082;43.568;22.256;2022-11-18T14:23:40;109.13;;;75.45;;
57225;SDS011;43082;43.568;22.256;2022-11-18T14:26:07;131.75;;;90.25;;
57225;SDS011;43082;43.568;22.256;2022-11-18T14:28:33;115.60;;;82.97;;
57225;SDS011;43082;43.568;22.256;2022-11-18T14:31:20;115.22;;;79.97;;
57225;SDS011;43082;43.568;22.256;2022-11-18T14:36:38;90.38;;;64.57;;
57225;SDS011;43082;43.568;22.256;2022-11-18T14:39:11;107.57;;;78.53;;
57225;SDS011;43082;43.568;22.256;2022-11-18T14:41:37;141.65;;;109.47;;
57225;SDS011;43082;43.568;22.256;2022-11-18T14:44:12;98.03;;;73.63;;
57225;SDS011;43082;43.568;22.256;2022-11-18T14:46:37;118.30;;;93.35;;
57225;SDS011;43082;43.568;22.256;2022-11-18T14:49:04;111.18;;;81.63;;
57225;SDS011;43082;43.568;22.256;2022-11-18T14:51:31;77.90;;;55.42;;
57225;SDS011;43082;43.568;22.256;2022-11-18T14:53:56;211.82;;;164.68;;
57225;SDS011;43082;43.568;22.256;2022-11-18T14:58:54;119.95;;;93.35;;
57225;SDS011;43082;43.568;22.256;2022-11-18T15:01:19;150.98;;;126.72;;
57225;SDS011;43082;43.568;22.256;2022-11-18T15:03:45;69.10;;;52.88;;
57225;SDS011;43082;43.568;22.256;2022-11-18T15:06:18;75.72;;;59.17;;
57225;SDS011;43082;43.568;22.256;2022-11-18T15:08:46;40.08;;;28.63;;
57225;SDS011;43082;43.568;22.256;2022-11-18T15:11:13;33.50;;;20.48;;
57225;SDS011;43082;43.568;22.256;2022-11-18T15:13:39;23.20;;;15.05;;
57225;SDS011;43082;43.568;22.256;2022-11-18T15:16:24;24.42;;;12.60;;
57225;SDS011;43082;43.568;22.256;2022-11-18T15:18:52;17.35;;;8.38;;
57225;SDS011;43082;43.568;22.256;2022-11-18T15:22:16;25.40;;;14.55;;
57225;SDS011;43082;43.568;22.256;2022-11-18T15:25:40;34.55;;;19.88;;
57225;SDS011;43082;43.568;22.256;2022-11-18T15:29:02;32.25;;;18.75;;
57225;SDS011;43082;43.568;22.256;2022-11-18T15:32:11;28.02;;;18.63;;
57225;SDS011;43082;43.568;22.256;2022-11-18T15:35:32;41.85;;;27.70;;
57225;SDS011;43082;43.568;22.256;2022-11-18T15:38:52;20.13;;;12.75;;
57225;SDS011;43082;43.568;22.256;2022-11-18T15:41:39;32.75;;;19.52;;
57225;SDS011;43082;43.568;22.256;2022-11-18T15:44:08;21.98;;;13.77;;
57225;SDS011;43082;43.568;22.256;2022-11-18T15:46:55;14.63;;;8.27;;
57225;SDS011;43082;43.568;22.256;2022-11-18T15:49:42;11.95;;;5.97;;
57225;SDS011;43082;43.568;22.256;2022-11-18T15:52:17;10.45;;;5.47;;
57225;SDS011;43082;43.568;22.256;2022-11-18T15:54:48;18.60;;;10.50;;
57225;SDS011;43082;43.568;22.256;2022-11-18T15:57:16;20.80;;;11.38;;
57225;SDS011;43082;43.568;22.256;2022-11-18T16:00:02;23.30;;;12.50;;
57225;SDS011;43082;43.568;22.256;2022-11-18T16:02:30;21.00;;;11.68;;
57225;SDS011;43082;43.568;22.256;2022-11-18T16:04:56;17.05;;;10.70;;
57225;SDS011;43082;43.568;22.256;2022-11-18T16:07:31;23.13;;;14.18;;
57225;SDS011;43082;43.568;22.256;2022-11-18T16:09:57;15.77;;;9.98;;
57225;SDS011;43082;43.568;22.256;2022-11-18T16:12:41;21.60;;;13.77;;
57225;SDS011;43082;43.568;22.256;2022-11-18T16:15:13;30.65;;;20.63;;
57225;SDS011;43082;43.568;22.256;2022-11-18T16:18:02;31.17;;;21.00;;
57225;SDS011;43082;43.568;22.256;2022-11-18T16:20:28;34.13;;;24.75;;
57225;SDS011;43082;43.568;22.256;2022-11-18T16:22:54;39.20;;;28.25;;
57225;SDS011;43082;43.568;22.256;2022-11-18T16:25:21;36.90;;;27.23;;
57225;SDS011;43082;43.568;22.256;2022-11-18T16:27:47;37.80;;;27.63;;
57225;SDS011;43082;43.568;22.256;2022-11-18T16:30:13;37.28;;;27.48;;
57225;SDS011;43082;43.568;22.256;2022-11-18T16:32:58;25.80;;;16.77;;
57225;SDS011;43082;43.568;22.256;2022-11-18T16:35:24;24.55;;;14.10;;
57225;SDS011;43082;43.568;22.256;2022-11-18T16:37:50;23.48;;;15.02;;
57225;SDS011;43082;43.568;22.256;2022-11-18T16:40:16;23.80;;;15.32;;
57225;SDS011;43082;43.568;22.256;2022-11-18T16:42:42;26.17;;;17.25;;
57225;SDS011;43082;43.568;22.256;2022-11-18T16:45:07;45.25;;;34.53;;
57225;SDS011;43082;43.568;22.256;2022-11-18T16:47:33;22.10;;;15.70;;